Time;durP1;ratioP1;P1;durP2;ratioP2;P2;SDS_P1;SDS_P2;PMS_P1;PMS_P2;Temp;Humidity;BMP_temperature;BMP_pressure;BME280_temperature;BME280_humidity;BME280_pressure;Samples;Min_cycle;Max_cycle;Signal;HPM_P1;HPM_P2
2022/05/26 00:01:46;;;;;;;1.90;1.42;;;23.40;39.00;;;;;;8296506;28;20041;-41
2022/05/26 00:05:46;;;;;;;1.60;1.48;;;23.50;39.10;;;;;;8296212;28;20038;-41
2022/05/26 00:09:47;;;;;;;2.03;1.30;;;23.40;39.00;;;;;;8295430;28;20352;-41
2022/05/26 00:13:47;;;;;;;1.00;0.90;;;23.40;39.00;;;;;;8296027;28;20034;-41
2022/05/26 00:17:48;;;;;;;1.35;1.25;;;23.40;39.10;;;;;;8295670;28;20041;-41
2022/05/26 00:21:49;;;;;;;1.30;1.03;;;23.40;39.10;;;;;;8295024;28;20041;-41
2022/05/26 00:25:49;;;;;;;2.30;1.10;;;23.40;39.00;;;;;;8295702;28;20033;-40
2022/05/26 00:29:50;;;;;;;1.93;1.10;;;23.40;39.00;;;;;;8295207;28;20052;-40
2022/05/26 00:33:51;;;;;;;1.83;1.37;;;23.40;39.10;;;;;;8294974;28;20030;-41
2022/05/26 00:37:51;;;;;;;1.95;1.00;;;23.40;39.10;;;;;;8295198;28;20121;-41
2022/05/26 00:41:55;;;;;;;1.75;1.60;;;23.30;39.10;;;;;;8295177;28;20104;-41
2022/05/26 00:46:06;;;;;;;1.40;1.15;;;23.30;39.00;;;;;;8293312;28;20034;-41
2022/05/26 00:50:29;;;;;;;1.30;1.10;;;23.30;39.00;;;;;;8295026;28;20050;-40
2022/05/26 00:54:30;;;;;;;1.30;1.10;;;23.30;39.00;;;;;;8294403;28;20404;-41
2022/05/26 00:58:33;;;;;;;;;;;23.30;39.00;;;;;;8295320;28;20026;-41
2022/05/26 01:02:37;;;;;;;1.25;1.10;;;23.30;39.10;;;;;;8294277;28;19924;-41
2022/05/26 01:06:47;;;;;;;1.92;1.05;;;23.30;39.10;;;;;;8276080;28;20247;-41
2022/05/26 01:10:47;;;;;;;1.58;1.13;;;23.30;39.10;;;;;;8294291;28;20038;-40
2022/05/26 01:15:07;;;;;;;1.38;1.02;;;23.30;39.10;;;;;;8294237;28;20121;-40
2022/05/26 01:19:39;;;;;;;1.15;1.05;;;23.30;39.10;;;;;;8275934;28;20064;-40
2022/05/26 01:24:17;;;;;;;2.10;1.23;;;23.30;39.10;;;;;;8293637;28;20061;-40
2022/05/26 01:28:23;;;;;;;1.23;1.10;;;23.20;39.10;;;;;;8292958;28;20044;-40
2022/05/26 01:32:29;;;;;;;1.50;1.00;;;23.20;39.10;;;;;;8293537;28;20033;-40
2022/05/26 01:36:39;;;;;;;1.35;1.10;;;23.20;39.10;;;;;;8292750;28;20030;-40
2022/05/26 01:41:15;;;;;;;1.73;1.30;;;23.20;39.10;;;;;;8293071;28;20065;-40
2022/05/26 01:45:55;;;;;;;1.25;0.88;;;23.20;39.10;;;;;;8292914;28;20053;-40
2022/05/26 01:50:03;;;;;;;1.73;1.20;;;23.20;39.10;;;;;;8243704;28;20093;-40
2022/05/26 01:54:29;;;;;;;1.60;1.00;;;23.20;39.20;;;;;;8292288;28;20456;-40
2022/05/26 01:58:43;;;;;;;1.55;1.20;;;23.20;39.20;;;;;;8292560;28;20121;-41
2022/05/26 02:02:55;;;;;;;3.22;1.20;;;23.20;39.10;;;;;;8292852;28;20129;-40
2022/05/26 02:07:15;;;;;;;1.65;1.15;;;23.10;39.20;;;;;;8292025;28;20061;-40
2022/05/26 02:11:19;;;;;;;1.50;0.90;;;23.20;39.20;;;;;;8292432;28;20588;-40
2022/05/26 02:15:52;;;;;;;2.03;0.98;;;23.20;39.20;;;;;;8291897;28;20029;-40
2022/05/26 02:19:59;;;;;;;1.10;1.00;;;23.10;39.20;;;;;;8292413;28;20196;-40
2022/05/26 02:24:03;;;;;;;1.20;1.10;;;23.10;39.20;;;;;;8292042;28;20030;-40
2022/05/26 02:28:05;;;;;;;1.50;1.40;;;23.00;39.10;;;;;;8291560;28;20487;-40
2022/05/26 02:32:07;;;;;;;1.17;1.08;;;23.10;39.20;;;;;;8291854;28;20052;-40
2022/05/26 02:36:08;;;;;;;1.73;1.23;;;23.10;39.20;;;;;;8291185;28;20026;-40
2022/05/26 02:40:09;;;;;;;1.10;1.00;;;23.10;39.20;;;;;;8292217;28;20073;-40
2022/05/26 02:44:10;;;;;;;2.53;1.10;;;23.00;39.20;;;;;;8291647;28;20046;-40
2022/05/26 02:48:48;;;;;;;1.88;1.38;;;23.10;39.30;;;;;;8290699;28;20045;-40
2022/05/26 02:53:17;;;;;;;2.45;1.05;;;23.10;39.30;;;;;;8291106;28;20034;-41
2022/05/26 02:57:24;;;;;;;1.30;0.93;;;23.00;39.20;;;;;;8290771;28;20046;-40
2022/05/26 03:01:33;;;;;;;1.38;1.10;;;23.00;39.30;;;;;;8291488;28;20030;-40
2022/05/26 03:05:38;;;;;;;0.80;0.80;;;23.00;39.30;;;;;;8291462;28;20034;-40
2022/05/26 03:09:41;;;;;;;1.38;1.23;;;23.00;39.30;;;;;;8293804;28;20046;-40
2022/05/26 03:13:41;;;;;;;1.17;1.08;;;23.00;39.30;;;;;;8297973;28;20038;-40
2022/05/26 03:17:42;;;;;;;1.37;0.90;;;23.00;39.30;;;;;;8297592;28;20041;-40
2022/05/26 03:21:43;;;;;;;1.30;0.90;;;23.00;39.30;;;;;;8297221;28;20335;-40
2022/05/26 03:25:47;;;;;;;1.10;1.00;;;22.90;39.30;;;;;;8297710;28;20471;-40
2022/05/26 03:29:48;;;;;;;1.02;0.90;;;23.00;39.30;;;;;;8297203;28;20388;-40
2022/05/26 03:42:28;;;;;;;2.13;1.13;;;22.90;39.30;;;;;;8296530;28;20110;-40
2022/05/26 03:46:29;;;;;;;2.22;0.88;;;22.90;39.30;;;;;;8296874;28;20042;-40
2022/05/26 03:50:30;;;;;;;1.25;0.98;;;22.90;39.30;;;;;;8296817;28;20038;-40
2022/05/26 03:54:30;;;;;;;1.08;1.08;;;22.90;39.40;;;;;;8296170;28;20483;-40
2022/05/26 03:58:32;;;;;;;1.50;1.17;;;22.90;39.40;;;;;;8296719;28;20060;-41
2022/05/26 04:02:35;;;;;;;2.03;1.35;;;22.90;39.30;;;;;;8296308;28;20556;-41
2022/05/26 04:06:36;;;;;;;2.58;1.10;;;22.90;39.30;;;;;;8295382;28;20255;-41
2022/05/26 04:10:38;;;;;;;0.98;0.90;;;22.90;39.40;;;;;;8295813;28;20413;-41
2022/05/26 04:14:38;;;;;;;;;;;22.90;39.40;;;;;;8296601;28;20030;-41
2022/05/26 04:18:39;;;;;;;0.80;0.80;;;22.80;39.30;;;;;;8295348;28;19956;-41
2022/05/26 04:22:40;;;;;;;0.83;0.80;;;22.80;39.30;;;;;;8295438;28;20346;-40
2022/05/26 04:26:40;;;;;;;1.08;0.90;;;22.80;39.30;;;;;;8295779;28;20034;-40
2022/05/26 04:30:40;;;;;;;1.23;1.03;;;22.90;39.30;;;;;;8295020;28;20467;-40
2022/05/26 04:34:42;;;;;;;1.00;0.90;;;22.80;39.30;;;;;;8295415;28;20062;-42
2022/05/26 04:38:43;;;;;;;1.58;1.13;;;22.80;39.30;;;;;;8294742;28;20053;-40
2022/05/26 04:42:44;;;;;;;2.05;1.17;;;22.80;39.30;;;;;;8294612;28;20105;-40
2022/05/26 04:46:44;;;;;;;1.20;1.10;;;22.80;39.30;;;;;;8294908;28;20484;-40
2022/05/26 04:50:45;;;;;;;1.87;0.90;;;22.80;39.30;;;;;;8295366;28;20300;-40
2022/05/26 04:54:46;;;;;;;1.50;1.07;;;22.80;39.30;;;;;;8294641;28;20041;-40
2022/05/26 04:58:47;;;;;;;1.17;0.90;;;22.90;39.30;;;;;;8294646;28;20483;-40
2022/05/26 05:02:47;;;;;;;1.00;0.88;;;22.90;39.30;;;;;;8294032;28;20030;-39
2022/05/26 05:06:48;;;;;;;1.10;1.00;;;22.80;39.30;;;;;;8294006;28;20116;-39
2022/05/26 05:10:48;;;;;;;0.87;0.80;;;22.80;39.30;;;;;;8294137;28;20050;-41
2022/05/26 05:14:51;;;;;;;1.47;1.10;;;22.80;39.30;;;;;;8294243;28;20060;-39
2022/05/26 05:18:52;;;;;;;0.95;0.77;;;22.80;39.20;;;;;;8293206;28;20448;-39
2022/05/26 05:23:01;;;;;;;1.77;1.00;;;22.90;39.30;;;;;;8293791;28;20029;-40
2022/05/26 05:27:10;;;;;;;1.23;0.90;;;22.80;39.20;;;;;;8293234;28;20092;-40
2022/05/26 05:31:19;;;;;;;1.42;0.90;;;22.90;39.20;;;;;;8292944;28;20133;-40
2022/05/26 05:35:26;;;;;;;1.00;0.90;;;22.90;39.20;;;;;;8293132;28;20030;-40
2022/05/26 05:39:27;;;;;;;1.75;1.08;;;22.90;39.20;;;;;;8292587;28;20038;-40
2022/05/26 05:43:30;;;;;;;0.82;0.82;;;22.90;39.20;;;;;;8292675;28;20076;-40
2022/05/26 05:47:31;;;;;;;1.08;1.02;;;22.90;39.20;;;;;;8292944;28;20034;-40
2022/05/26 05:51:32;;;;;;;1.83;0.80;;;22.90;39.20;;;;;;8292204;28;20945;-40
2022/05/26 05:55:33;;;;;;;2.35;1.05;;;22.80;39.20;;;;;;8292835;28;20092;-40
2022/05/26 05:59:34;;;;;;;0.80;0.80;;;22.80;39.20;;;;;;8292592;28;20034;-40
2022/05/26 06:03:35;;;;;;;1.23;0.85;;;22.80;39.20;;;;;;8291880;28;20041;-40
2022/05/26 06:07:39;;;;;;;0.98;0.93;;;22.80;39.20;;;;;;8292352;28;20383;-39
2022/05/26 06:11:41;;;;;;;1.65;0.90;;;22.80;39.20;;;;;;8292458;28;20049;-39
2022/05/26 06:15:45;;;;;;;0.80;0.73;;;22.80;39.20;;;;;;8291386;28;20033;-39
2022/05/26 06:19:45;;;;;;;1.27;0.90;;;22.80;39.20;;;;;;8292053;28;20034;-40
2022/05/26 06:23:46;;;;;;;2.40;1.07;;;22.80;39.20;;;;;;8291604;28;20038;-41
2022/05/26 06:40:45;;;;;;;0.98;0.88;;;22.80;39.20;;;;;;8291729;28;20149;-41
2022/05/26 06:44:45;;;;;;;1.00;0.93;;;22.80;39.20;;;;;;8290607;28;20038;-41
2022/05/26 06:48:47;;;;;;;1.52;1.30;;;22.80;39.20;;;;;;8290371;28;20042;-40
2022/05/26 06:52:48;;;;;;;0.88;0.80;;;22.80;39.20;;;;;;8291354;28;20026;-41
2022/05/26 06:56:48;;;;;;;;;;;22.80;39.20;;;;;;8291833;28;20052;-39
2022/05/26 07:00:49;;;;;;;1.23;1.00;;;22.90;39.30;;;;;;8290639;28;20355;-41
2022/05/26 07:04:50;;;;;;;1.23;1.10;;;22.90;39.30;;;;;;8291137;28;20030;-41
2022/05/26 07:08:51;;;;;;;1.13;0.90;;;22.90;39.30;;;;;;8290918;28;20046;-40
2022/05/26 07:12:52;;;;;;;1.05;0.85;;;22.90;39.20;;;;;;8290688;28;20387;-40
2022/05/26 07:16:53;;;;;;;1.15;1.08;;;22.90;39.20;;;;;;8291358;28;20045;-40
2022/05/26 07:20:54;;;;;;;0.97;0.97;;;22.80;39.20;;;;;;8291157;28;20420;-41
2022/05/26 07:24:54;;;;;;;1.48;1.05;;;22.90;39.20;;;;;;8290301;28;20041;-41
2022/05/26 07:28:55;;;;;;;1.02;0.90;;;22.80;39.20;;;;;;8290841;28;20038;-39
2022/05/26 07:32:55;;;;;;;1.00;0.90;;;22.90;39.20;;;;;;8290838;28;20038;-40
2022/05/26 07:41:25;;;;;;;1.02;1.00;;;22.90;39.20;;;;;;8290547;28;20119;-40
2022/05/26 07:45:25;;;;;;;1.95;1.15;;;22.90;39.20;;;;;;8290084;28;20026;-39
2022/05/26 07:49:26;;;;;;;1.10;1.00;;;22.90;39.20;;;;;;8290490;28;20337;-41
2022/05/26 07:53:27;;;;;;;0.85;0.75;;;22.90;39.20;;;;;;8290697;28;20018;-41
2022/05/26 07:57:28;;;;;;;1.43;0.90;;;22.90;39.20;;;;;;8295966;28;20117;-41
2022/05/26 08:01:29;;;;;;;0.95;0.93;;;23.00;39.20;;;;;;8296356;28;20042;-39
2022/05/26 08:05:30;;;;;;;1.20;1.08;;;22.90;39.10;;;;;;8296077;28;20049;-40
2022/05/26 08:09:30;;;;;;;1.42;0.93;;;23.00;39.20;;;;;;8295634;28;20125;-40
2022/05/26 08:13:31;;;;;;;1.48;0.88;;;23.00;39.20;;;;;;8296214;28;20033;-40
2022/05/26 08:17:32;;;;;;;1.35;0.98;;;23.00;39.20;;;;;;8296072;28;20133;-41
2022/05/26 08:21:33;;;;;;;0.70;0.70;;;22.90;39.10;;;;;;8295087;28;20042;-41
2022/05/26 08:25:34;;;;;;;0.77;0.70;;;23.00;39.20;;;;;;8295491;28;20040;-41
2022/05/26 08:29:34;;;;;;;1.00;0.90;;;23.00;39.20;;;;;;8295222;28;20044;-41
2022/05/26 08:33:35;;;;;;;1.98;0.98;;;23.00;39.20;;;;;;8294910;28;20375;-41
2022/05/26 08:37:36;;;;;;;0.70;0.63;;;23.10;39.20;;;;;;8295359;28;20045;-42
2022/05/26 08:41:42;;;;;;;0.77;0.73;;;23.00;39.10;;;;;;8294998;28;20491;-41
2022/05/26 08:45:47;;;;;;;1.67;1.10;;;23.10;39.20;;;;;;8294573;28;20052;-41
2022/05/26 08:50:00;;;;;;;2.03;0.90;;;23.10;39.20;;;;;;8294976;28;20046;-39
2022/05/26 08:54:03;;;;;;;1.15;1.05;;;23.10;39.20;;;;;;8294532;28;20061;-40
2022/05/26 08:58:15;;;;;;;1.00;0.80;;;23.00;39.10;;;;;;8294519;28;20360;-40
2022/05/26 09:02:24;;;;;;;1.42;0.95;;;23.10;39.20;;;;;;8294762;28;20042;-40
2022/05/26 09:06:25;;;;;;;1.15;0.70;;;23.10;39.10;;;;;;8292695;28;20049;-40
2022/05/26 09:14:52;;;;;;;0.80;0.80;;;23.10;39.10;;;;;;8294118;28;20513;-40
2022/05/26 09:19:17;;;;;;;0.97;0.90;;;23.20;39.10;;;;;;8293116;28;20054;-40
2022/05/26 09:23:27;;;;;;;1.65;0.90;;;23.20;39.00;;;;;;8294164;28;20404;-40
2022/05/26 09:27:31;;;;;;;1.00;0.80;;;23.20;39.00;;;;;;8292950;28;20033;-40
2022/05/26 09:31:34;;;;;;;0.70;0.70;;;23.20;39.00;;;;;;8293020;28;20042;-40
2022/05/26 09:35:35;;;;;;;0.73;0.73;;;23.30;39.00;;;;;;8293339;28;20573;-40
2022/05/26 09:39:42;;;;;;;1.20;1.10;;;23.30;39.00;;;;;;8292315;28;20113;-40
2022/05/26 09:43:50;;;;;;;1.52;0.90;;;23.30;39.20;;;;;;8293045;28;20048;-40
2022/05/26 09:47:57;;;;;;;1.55;0.93;;;23.30;38.90;;;;;;8293235;28;20121;-40
2022/05/26 09:52:19;;;;;;;2.25;0.90;;;23.30;38.90;;;;;;8292205;28;20065;-41
2022/05/26 09:56:40;;;;;;;2.00;0.80;;;23.40;38.80;;;;;;8292810;28;20509;-41
2022/05/26 10:00:45;;;;;;;;;;;23.40;38.80;;;;;;8292787;28;20029;-39
2022/05/26 10:05:14;;;;;;;0.85;0.70;;;23.40;38.80;;;;;;8292705;28;19924;-39
2022/05/26 10:09:43;;;;;;;1.88;0.80;;;23.40;38.70;;;;;;8292026;28;20057;-39
2022/05/26 10:14:28;;;;;;;1.13;0.80;;;23.50;38.80;;;;;;8266504;28;20041;-40
2022/05/26 10:18:35;;;;;;;1.00;0.60;;;23.50;38.70;;;;;;8217513;28;20037;-41
2022/05/26 10:22:47;;;;;;;1.10;1.00;;;23.50;38.70;;;;;;8292236;28;20125;-41
2022/05/26 10:27:33;;;;;;;0.85;0.70;;;23.60;38.70;;;;;;8292013;28;20038;-41
2022/05/26 10:31:52;;;;;;;0.68;0.55;;;23.60;38.70;;;;;;8291724;28;20565;-41
2022/05/26 10:36:07;;;;;;;0.95;0.82;;;23.60;38.70;;;;;;8291343;28;20046;-41
2022/05/26 10:40:14;;;;;;;1.95;0.82;;;23.60;38.60;;;;;;8291505;28;20064;-40
2022/05/26 10:44:37;;;;;;;0.82;0.63;;;23.60;38.60;;;;;;8291465;28;20487;-40
2022/05/26 10:48:54;;;;;;;1.50;0.88;;;23.60;38.50;;;;;;8291117;28;20034;-40
2022/05/26 10:53:03;;;;;;;2.35;0.88;;;23.70;38.60;;;;;;8291306;28;20053;-40
2022/05/26 10:57:14;;;;;;;0.70;0.70;;;23.70;38.60;;;;;;8290703;28;20056;-41
2022/05/26 11:01:34;;;;;;;;;;;23.70;39.10;;;;;;8291925;28;20535;-40
2022/05/26 11:05:38;;;;;;;0.90;0.70;;;23.70;38.50;;;;;;8291001;28;19913;-40
2022/05/26 11:09:50;;;;;;;0.65;0.65;;;23.70;38.50;;;;;;8290316;28;20526;-42
2022/05/26 11:14:02;;;;;;;2.45;1.65;;;23.80;38.40;;;;;;8290887;28;20509;-40
2022/05/26 11:18:14;;;;;;;1.42;1.27;;;23.80;38.50;;;;;;8290124;28;20034;-40
2022/05/26 11:22:14;;;;;;;;;;;23.80;38.40;;;;;;8291175;28;20038;-40
2022/05/26 11:26:26;;;;;;;2.87;2.20;;;23.90;38.40;;;;;;8290690;28;19928;-40
2022/05/26 11:39:53;;;;;;;3.72;2.53;;;23.90;38.30;;;;;;8296413;28;20549;-40
2022/05/26 11:44:08;;;;;;;2.75;2.30;;;23.90;38.20;;;;;;8296972;28;20099;-40
2022/05/26 11:48:30;;;;;;;3.20;2.30;;;23.90;38.10;;;;;;8296830;28;20034;-40
2022/05/26 11:52:37;;;;;;;3.28;2.20;;;23.90;38.20;;;;;;8296641;28;20042;-41
2022/05/26 11:56:42;;;;;;;3.78;2.50;;;24.00;38.20;;;;;;8296416;28;20485;-40
2022/05/26 12:00:44;;;;;;;2.40;1.88;;;24.00;38.20;;;;;;8296195;28;20113;-40
2022/05/26 12:04:47;;;;;;;2.47;1.90;;;24.00;38.20;;;;;;8296119;28;20034;-40
2022/05/26 12:08:54;;;;;;;2.75;2.15;;;24.00;38.10;;;;;;8296377;28;20040;-40
2022/05/26 12:13:21;;;;;;;2.75;2.10;;;24.00;38.10;;;;;;8294827;28;20030;-40
2022/05/26 12:17:36;;;;;;;3.72;2.20;;;24.10;38.00;;;;;;8295908;28;20042;-40
2022/05/26 12:21:46;;;;;;;2.25;1.83;;;24.10;37.90;;;;;;8294912;28;20150;-40
2022/05/26 12:26:22;;;;;;;2.67;2.20;;;24.10;38.00;;;;;;8295177;28;20552;-40
2022/05/26 12:30:31;;;;;;;2.47;2.20;;;24.10;38.00;;;;;;8294717;28;20491;-40
2022/05/26 12:34:46;;;;;;;4.60;2.22;;;24.20;38.00;;;;;;8295388;28;20513;-40
2022/05/26 12:39:21;;;;;;;2.55;1.83;;;24.20;38.00;;;;;;8295243;28;20030;-40
2022/05/26 12:43:33;;;;;;;2.10;1.65;;;24.20;38.00;;;;;;8293838;28;20076;-40
2022/05/26 12:48:04;;;;;;;3.63;2.03;;;24.20;37.90;;;;;;8295133;28;20541;-40
2022/05/26 12:52:10;;;;;;;2.40;1.80;;;24.20;37.80;;;;;;8294663;28;20056;-40
2022/05/26 12:56:24;;;;;;;3.95;2.03;;;24.30;37.90;;;;;;8294713;28;20092;-41
2022/05/26 13:00:39;;;;;;;3.30;2.05;;;24.30;37.90;;;;;;8276648;28;20395;-40
2022/05/26 13:04:40;;;;;;;2.67;1.90;;;24.30;37.90;;;;;;8294846;28;20653;-40
2022/05/26 13:08:53;;;;;;;;;;;24.30;38.00;;;;;;8294574;28;20037;-40
2022/05/26 13:12:54;;;;;;;1.95;1.60;;;24.20;38.10;;;;;;8293795;28;19925;-40
2022/05/26 13:17:16;;;;;;;2.75;1.85;;;24.20;38.10;;;;;;8293912;28;20038;-41
2022/05/26 13:21:21;;;;;;;3.25;1.90;;;24.20;38.10;;;;;;8293276;28;20449;-41
2022/05/26 13:25:29;;;;;;;1.73;1.60;;;24.20;38.10;;;;;;8293651;28;20113;-40
2022/05/26 13:29:33;;;;;;;2.58;1.90;;;24.20;38.10;;;;;;8293802;28;20041;-41
2022/05/26 13:33:44;;;;;;;2.22;1.67;;;24.20;38.10;;;;;;8292853;28;20040;-41
2022/05/26 13:37:45;;;;;;;2.00;1.80;;;24.30;38.10;;;;;;8293266;28;20405;-41
2022/05/26 13:41:48;;;;;;;2.13;1.77;;;24.30;38.00;;;;;;8293496;28;20041;-40
2022/05/26 13:45:49;;;;;;;2.28;1.67;;;24.30;38.00;;;;;;8292667;28;20041;-41
2022/05/26 13:50:02;;;;;;;3.65;1.75;;;24.30;38.10;;;;;;8293073;28;20430;-41
2022/05/26 13:54:20;;;;;;;1.58;1.45;;;24.30;38.10;;;;;;8291823;28;20394;-41
2022/05/26 13:58:21;;;;;;;1.70;1.50;;;24.30;38.00;;;;;;8292617;28;20399;-41
2022/05/26 14:02:26;;;;;;;2.10;1.60;;;24.30;38.10;;;;;;8293015;28;20034;-41
2022/05/26 14:06:35;;;;;;;2.20;1.50;;;24.30;38.10;;;;;;8292126;28;20034;-41
2022/05/26 14:10:50;;;;;;;2.88;1.63;;;24.30;38.10;;;;;;8292792;28;20067;-41
2022/05/26 14:14:51;;;;;;;1.55;1.30;;;24.30;38.10;;;;;;8292628;28;20061;-41
2022/05/26 14:18:59;;;;;;;1.53;1.33;;;24.40;38.10;;;;;;8291415;28;20034;-41
2022/05/26 14:23:00;;;;;;;2.13;1.50;;;24.30;38.00;;;;;;8292291;28;20277;-39
2022/05/26 14:27:12;;;;;;;1.63;1.45;;;24.30;38.00;;;;;;8291599;28;20490;-39
2022/05/26 14:31:32;;;;;;;2.47;1.40;;;24.30;38.00;;;;;;8291259;28;20096;-41
2022/05/26 14:35:33;;;;;;;1.67;1.20;;;24.30;38.00;;;;;;8291658;28;20229;-39
2022/05/26 14:39:33;;;;;;;2.67;1.57;;;24.30;38.00;;;;;;8291241;28;20022;-39
2022/05/26 14:43:35;;;;;;;1.58;1.48;;;24.30;38.10;;;;;;8291472;28;20292;-40
2022/05/26 14:47:37;;;;;;;1.45;1.33;;;24.30;38.10;;;;;;8291243;28;20041;-40
2022/05/26 14:51:39;;;;;;;1.30;1.20;;;24.30;38.10;;;;;;8290772;28;20069;-39
2022/05/26 14:55:41;;;;;;;2.40;1.38;;;24.30;38.10;;;;;;8291075;28;20038;-40
2022/05/26 14:59:42;;;;;;;1.85;1.38;;;24.30;38.10;;;;;;8291442;28;20042;-40
2022/05/26 15:03:42;;;;;;;2.05;1.42;;;24.30;38.10;;;;;;8289735;28;20132;-40
2022/05/26 15:07:44;;;;;;;2.53;1.30;;;24.30;38.10;;;;;;8290868;28;20034;-40
2022/05/26 15:11:48;;;;;;;1.83;1.20;;;24.30;38.10;;;;;;8290732;28;20129;-40
2022/05/26 15:15:48;;;;;;;1.75;1.65;;;24.30;38.00;;;;;;8290589;28;20085;-40
2022/05/26 15:19:53;;;;;;;2.47;1.25;;;24.30;38.00;;;;;;8291006;28;20135;-40
2022/05/26 15:23:54;;;;;;;2.13;1.23;;;24.30;38.00;;;;;;8291190;28;20088;-40
2022/05/26 15:27:57;;;;;;;2.97;1.58;;;24.40;38.10;;;;;;8290469;28;20113;-40
2022/05/26 15:31:58;;;;;;;1.55;1.20;;;24.40;38.10;;;;;;8291099;28;20042;-40
2022/05/26 15:35:58;;;;;;;1.92;1.25;;;24.40;38.10;;;;;;8273189;28;20052;-40
2022/05/26 15:39:59;;;;;;;1.30;1.17;;;24.40;38.10;;;;;;8290275;28;20026;-40
2022/05/26 15:44:00;;;;;;;1.30;1.17;;;24.40;38.10;;;;;;8290492;28;20026;-40
2022/05/26 15:48:00;;;;;;;1.77;1.38;;;24.40;38.10;;;;;;8290553;28;20045;-40
2022/05/26 15:52:01;;;;;;;1.15;1.02;;;24.40;38.10;;;;;;8289820;28;20071;-40
2022/05/26 15:56:04;;;;;;;1.67;1.10;;;24.40;38.10;;;;;;8289974;28;20117;-40
2022/05/26 16:00:07;;;;;;;1.50;1.13;;;24.40;38.10;;;;;;8289878;28;20042;-40
2022/05/26 16:04:08;;;;;;;1.42;1.30;;;24.40;38.10;;;;;;8289761;28;20034;-40
2022/05/26 16:08:09;;;;;;;;;;;24.40;38.10;;;;;;8290892;28;20357;-41
2022/05/26 16:12:10;;;;;;;1.23;1.13;;;24.40;38.10;;;;;;8289178;28;19929;-41
2022/05/26 16:16:11;;;;;;;1.98;1.50;;;24.40;38.00;;;;;;8292019;28;20091;-40
2022/05/26 16:20:12;;;;;;;1.20;1.10;;;24.40;38.10;;;;;;8296010;28;20525;-40
2022/05/26 16:24:12;;;;;;;2.38;0.93;;;24.40;38.10;;;;;;8295651;28;20034;-39
2022/05/26 16:28:13;;;;;;;1.50;1.27;;;24.40;38.10;;;;;;8295263;28;20038;-39
2022/05/26 16:32:14;;;;;;;1.13;1.02;;;24.40;38.20;;;;;;8295267;28;20392;-39
2022/05/26 16:40:33;;;;;;;1.10;1.00;;;24.40;38.20;;;;;;8295160;28;20049;-40
2022/05/26 16:44:35;;;;;;;1.48;1.23;;;24.30;38.10;;;;;;8295353;28;20026;-40
2022/05/26 16:48:37;;;;;;;1.20;1.10;;;24.40;38.20;;;;;;8294421;28;20080;-40
2022/05/26 16:52:38;;;;;;;2.05;1.38;;;24.30;38.20;;;;;;8294855;28;20510;-40
2022/05/26 16:56:39;;;;;;;1.33;1.10;;;24.30;38.20;;;;;;8294525;28;20036;-40
2022/05/26 17:00:40;;;;;;;1.17;1.08;;;24.30;38.20;;;;;;8294615;28;20475;-40
2022/05/26 17:04:41;;;;;;;1.15;1.05;;;24.30;38.10;;;;;;8294220;28;20518;-40
2022/05/26 17:08:46;;;;;;;1.50;1.38;;;24.30;38.10;;;;;;8294165;28;20056;-40
2022/05/26 17:21:40;;;;;;;1.52;1.02;;;24.30;38.20;;;;;;8293443;28;20088;-40
2022/05/26 17:25:40;;;;;;;1.02;0.85;;;24.30;38.20;;;;;;8293798;28;20117;-40
2022/05/26 17:29:41;;;;;;;1.33;1.07;;;24.30;38.20;;;;;;8292624;28;20049;-41
2022/05/26 17:33:41;;;;;;;1.15;1.05;;;24.30;38.20;;;;;;8292909;28;20265;-41
2022/05/26 17:37:43;;;;;;;1.23;0.98;;;24.30;38.20;;;;;;8293287;28;20054;-41
2022/05/26 17:41:44;;;;;;;2.22;0.95;;;24.30;38.20;;;;;;8292989;28;20095;-41
2022/05/26 17:45:46;;;;;;;1.23;1.10;;;24.30;38.20;;;;;;8271441;28;20034;-41
2022/05/26 17:49:46;;;;;;;1.27;1.17;;;24.30;38.20;;;;;;8284940;28;20502;-41
2022/05/26 17:53:47;;;;;;;1.20;1.10;;;24.30;38.30;;;;;;8293136;28;20038;-41
2022/05/26 17:57:47;;;;;;;1.10;0.90;;;24.30;38.20;;;;;;8291893;28;20026;-41
2022/05/26 18:01:48;;;;;;;1.25;1.00;;;24.20;38.20;;;;;;8292647;28;20036;-41
2022/05/26 18:05:49;;;;;;;0.98;0.98;;;24.20;38.30;;;;;;8292422;28;20125;-41
2022/05/26 18:09:50;;;;;;;1.45;1.20;;;24.20;38.30;;;;;;8291781;28;20160;-41
2022/05/26 18:13:50;;;;;;;1.27;1.17;;;24.20;38.30;;;;;;8292010;28;20479;-41
2022/05/26 18:17:51;;;;;;;1.58;1.20;;;24.20;38.30;;;;;;8292161;28;20403;-41
2022/05/26 18:21:52;;;;;;;1.08;0.98;;;24.20;38.30;;;;;;8291652;28;20030;-41
2022/05/26 18:25:53;;;;;;;1.20;1.10;;;24.20;38.30;;;;;;8292249;28;20065;-41
2022/05/26 18:29:54;;;;;;;;;;;24.20;38.30;;;;;;8292243;28;20071;-41
2022/05/26 18:33:58;;;;;;;1.37;1.27;;;24.20;38.90;;;;;;8291135;28;19913;-41
2022/05/26 18:37:58;;;;;;;1.25;1.15;;;24.20;38.40;;;;;;8291321;28;20100;-41
2022/05/26 18:41:59;;;;;;;1.83;1.38;;;24.20;38.40;;;;;;8292041;28;20050;-41
2022/05/26 18:46:01;;;;;;;1.45;1.13;;;24.10;38.30;;;;;;8290807;28;20072;-41
2022/05/26 18:50:05;;;;;;;1.23;1.13;;;24.10;38.30;;;;;;8291787;28;20399;-40
2022/05/26 18:54:06;;;;;;;1.20;1.10;;;24.10;38.40;;;;;;8290958;28;20045;-40
2022/05/26 18:58:09;;;;;;;1.20;1.10;;;24.10;38.40;;;;;;8291915;28;20049;-41
2022/05/26 19:02:19;;;;;;;1.25;1.10;;;24.10;38.40;;;;;;8291570;28;20037;-40
2022/05/26 19:06:20;;;;;;;1.35;1.00;;;24.10;38.40;;;;;;8290420;28;20065;-40
2022/05/26 19:10:21;;;;;;;1.02;1.00;;;24.10;38.50;;;;;;8291046;28;20038;-40
2022/05/26 19:14:25;;;;;;;1.15;0.90;;;24.10;38.50;;;;;;8290678;28;20061;-40
2022/05/26 19:18:26;;;;;;;1.35;1.00;;;24.10;38.50;;;;;;8290421;28;20038;-40
2022/05/26 19:22:27;;;;;;;1.10;1.00;;;24.10;38.50;;;;;;8290812;28;20034;-40
2022/05/26 19:26:28;;;;;;;0.80;0.80;;;24.10;38.50;;;;;;8290908;28;20037;-39
2022/05/26 19:30:29;;;;;;;1.73;0.90;;;24.00;38.50;;;;;;8289666;28;20342;-40
2022/05/26 19:34:30;;;;;;;1.48;1.30;;;24.10;38.60;;;;;;8290985;28;20420;-41
2022/05/26 19:38:30;;;;;;;0.93;0.88;;;24.00;38.60;;;;;;8290342;28;20541;-40
2022/05/26 19:42:33;;;;;;;1.57;1.20;;;24.00;38.60;;;;;;8290145;28;20030;-39
2022/05/26 19:46:37;;;;;;;2.30;1.38;;;24.00;38.60;;;;;;8290916;28;20848;-40
2022/05/26 19:50:37;;;;;;;0.95;0.90;;;24.10;38.70;;;;;;8291554;28;20050;-39
2022/05/26 19:54:38;;;;;;;1.53;1.20;;;24.00;38.60;;;;;;8296042;28;20025;-40
2022/05/26 19:58:38;;;;;;;1.93;1.47;;;24.00;38.60;;;;;;8296295;28;20781;-40
2022/05/26 20:02:39;;;;;;;2.27;1.20;;;24.00;38.60;;;;;;8296135;28;20275;-41
2022/05/26 20:06:40;;;;;;;1.20;1.10;;;24.00;38.60;;;;;;8296111;28;20056;-40
2022/05/26 20:10:41;;;;;;;1.63;1.20;;;24.00;38.60;;;;;;8296057;28;20093;-40
2022/05/26 20:14:41;;;;;;;1.95;1.10;;;23.90;38.60;;;;;;8295787;28;20088;-41
2022/05/26 20:18:42;;;;;;;1.45;1.17;;;23.90;38.70;;;;;;8295117;28;20439;-40
2022/05/26 20:22:43;;;;;;;1.88;1.02;;;23.90;38.70;;;;;;8296286;28;20030;-40
2022/05/26 20:26:44;;;;;;;1.45;1.17;;;23.90;38.70;;;;;;8295568;28;20034;-41
2022/05/26 20:30:44;;;;;;;1.02;0.98;;;23.90;38.70;;;;;;8294856;28;20494;-41
2022/05/26 20:34:45;;;;;;;1.15;1.10;;;23.90;38.70;;;;;;8295144;28;20041;-41
2022/05/26 20:38:46;;;;;;;1.88;1.20;;;23.90;38.70;;;;;;8295511;28;20038;-41
2022/05/26 20:42:46;;;;;;;1.10;1.00;;;23.90;38.70;;;;;;8294732;28;20042;-41
2022/05/26 20:46:47;;;;;;;1.35;1.20;;;23.90;38.70;;;;;;8295685;28;20033;-41
2022/05/26 20:50:49;;;;;;;1.98;1.48;;;23.90;38.70;;;;;;8294624;28;20137;-41
2022/05/26 20:54:49;;;;;;;1.30;0.93;;;23.80;38.70;;;;;;8294063;28;20033;-41
2022/05/26 20:58:50;;;;;;;2.10;1.30;;;23.90;38.70;;;;;;8294721;28;20494;-41
2022/05/26 21:02:50;;;;;;;1.48;1.23;;;23.80;38.70;;;;;;8293442;28;20125;-40
2022/05/26 21:06:53;;;;;;;2.05;1.10;;;23.80;38.70;;;;;;8293696;28;20026;-41
2022/05/26 21:10:54;;;;;;;1.77;1.20;;;23.80;38.70;;;;;;8293894;28;20084;-41
2022/05/26 21:14:54;;;;;;;1.90;1.00;;;23.80;38.70;;;;;;8294189;28;20034;-40
2022/05/26 21:18:57;;;;;;;1.30;1.20;;;23.80;38.70;;;;;;8293396;28;20289;-40
2022/05/26 21:22:57;;;;;;;1.48;1.38;;;23.80;38.70;;;;;;8294031;28;20359;-40
2022/05/26 21:26:58;;;;;;;1.27;1.10;;;23.80;38.70;;;;;;8293560;28;20065;-40
2022/05/26 21:31:01;;;;;;;1.60;1.30;;;23.80;38.70;;;;;;8293188;28;20503;-40
2022/05/26 21:35:08;;;;;;;1.40;1.30;;;23.80;38.80;;;;;;8293520;28;20099;-40
2022/05/26 21:39:09;;;;;;;1.10;1.00;;;23.80;38.70;;;;;;8293056;28;20038;-40
2022/05/26 21:43:10;;;;;;;1.33;1.10;;;23.80;38.80;;;;;;8293295;28;20100;-40
2022/05/26 21:47:11;;;;;;;1.50;1.30;;;23.70;38.70;;;;;;8293298;28;20038;-40
2022/05/26 21:51:15;;;;;;;2.35;1.25;;;23.70;38.70;;;;;;8292118;28;20132;-40
2022/05/26 21:55:19;;;;;;;1.30;1.20;;;23.70;38.80;;;;;;8293145;28;20237;-40
2022/05/26 21:59:20;;;;;;;2.22;1.20;;;23.70;38.80;;;;;;8292430;28;20081;-40
2022/05/26 22:03:20;;;;;;;1.43;1.20;;;23.70;38.80;;;;;;8292298;28;20030;-40
2022/05/26 22:11:41;;;;;;;1.23;1.00;;;23.70;38.80;;;;;;8292203;28;20111;-40
2022/05/26 22:15:43;;;;;;;1.10;1.08;;;23.70;38.80;;;;;;8291236;28;20430;-40